Portada
METAR-TAF:

METAR-TAF

Aeroports :

Avord, França

latitud: 47-03-12N, longitud: 002-37-57E, altitud: 177 m

Observació

L'informe es va fer fa 41 minuts, a les 21:30 UTC
Vent 4 kt del Est
Temperatura 21°C
Humitat 38%
Pressió 1017 hPa
Visibilitat 10 km o més
sense núvols per sota de 1500 mi sense presència de cumulonimbus.

METAR: LFOA 242130Z AUTO 08004KT CAVOK 21/06 Q1017 NOSIG

Hora: 00:11 (22:11 UTC)

Pronòstic

L'informe es va fer fa 2 hores i 11 minuts, a les 20:00 UTC
Pronòstic vàlid del 24 a les 21 UTC al 25 a les 21 UTC
Vent 5 kt del Est/Nord-Est
Visibilitat 10 km o més
sense núvols per sota de 1500 mi sense presència de cumulonimbus.

TAF: LFOA 242000Z 2421/2521 06005KT CAVOK

Observacions i pronòstics meteorològics de més de 4000 aeroports (METAR i TAF).

Les estacions disponibles són els punts grocs i vermells al mapa.

Posi el ratolí al punt desitjat per veure el nom de l'estació.

Feu clic per veure les observacions i els pronòstics meteorològics.

Per canviar el mapa: feu clic els botons verds amb una creu de color negre per apropar; al botó verd amb un guió per allunyar la imatge; o en les fletxes verdes per a mapes adjacents.


METAR-TAF: